createdAt,value
2018-04-15T00:00:00.828Z,52.49
2018-04-15T00:01:01.016Z,62.99
2018-04-15T00:02:01.207Z,54.44
2018-04-15T00:03:01.392Z,53.71
2018-04-15T00:04:01.578Z,52.00
2018-04-15T00:05:01.766Z,58.35
2018-04-15T00:06:01.953Z,57.86
2018-04-15T00:07:02.140Z,56.40
2018-04-15T00:08:02.326Z,47.85
2018-04-15T00:09:02.514Z,52.73
2018-04-15T00:10:02.702Z,53.71
2018-04-15T00:11:02.888Z,56.64
2018-04-15T00:12:03.074Z,52.98
2018-04-15T00:13:03.261Z,55.91
2018-04-15T00:14:03.447Z,52.73
2018-04-15T00:15:03.639Z,52.49
2018-04-15T00:16:03.820Z,54.93
2018-04-15T00:17:04.008Z,52.00
2018-04-15T00:18:04.197Z,52.49
2018-04-15T00:19:04.383Z,51.51
2018-04-15T00:20:04.572Z,51.03
2018-04-15T00:21:04.758Z,51.76
2018-04-15T00:22:04.946Z,43.46
2018-04-15T00:23:05.132Z,50.54
2018-04-15T00:24:05.319Z,49.32
2018-04-15T00:25:05.743Z,52.98
2018-04-15T00:26:05.861Z,53.22
2018-04-15T00:27:05.928Z,57.13
2018-04-15T00:28:06.110Z,49.07
2018-04-15T00:29:06.298Z,49.56
2018-04-15T00:30:06.485Z,53.47
2018-04-15T00:31:06.672Z,50.78
2018-04-15T00:32:06.861Z,59.33
2018-04-15T00:33:07.049Z,59.08
2018-04-15T00:34:07.236Z,50.05
2018-04-15T00:35:07.423Z,51.51
2018-04-15T00:36:07.612Z,50.05
2018-04-15T00:37:07.797Z,50.54
2018-04-15T00:38:07.986Z,48.10
2018-04-15T00:39:08.173Z,50.54
2018-04-15T00:40:08.360Z,54.20
2018-04-15T00:41:08.544Z,50.29
2018-04-15T00:42:08.733Z,56.40
2018-04-15T00:43:08.922Z,53.71
2018-04-15T00:44:09.107Z,54.93
2018-04-15T00:45:09.295Z,52.49
2018-04-15T00:46:09.482Z,52.25
2018-04-15T00:47:09.670Z,56.15
2018-04-15T00:48:09.857Z,56.15
2018-04-15T00:49:10.045Z,60.55
2018-04-15T00:50:10.234Z,49.32
2018-04-15T00:51:10.422Z,50.54
2018-04-15T00:52:10.610Z,52.25
2018-04-15T00:53:10.794Z,48.58
2018-04-15T00:54:10.983Z,46.88
2018-04-15T00:55:11.169Z,47.61
2018-04-15T00:56:11.356Z,64.94
2018-04-15T00:57:11.542Z,66.41
2018-04-15T00:58:11.732Z,53.47
2018-04-15T00:59:11.923Z,56.15
2018-04-15T01:00:12.106Z,53.22
2018-04-15T01:01:12.294Z,55.18
2018-04-15T01:02:12.481Z,52.00
2018-04-15T01:03:12.673Z,50.05
2018-04-15T01:04:12.852Z,54.20
2018-04-15T01:05:13.034Z,56.64
2018-04-15T01:06:13.227Z,52.25
2018-04-15T01:07:13.413Z,61.28
2018-04-15T01:08:13.599Z,52.49
2018-04-15T01:09:13.788Z,54.93
2018-04-15T01:10:13.976Z,53.47
2018-04-15T01:11:14.164Z,52.73
2018-04-15T01:12:14.351Z,46.88
2018-04-15T01:13:14.537Z,52.49
2018-04-15T01:14:14.726Z,51.51
2018-04-15T01:15:14.913Z,64.94
2018-04-15T01:16:15.099Z,60.55
2018-04-15T01:17:15.286Z,55.91
2018-04-15T01:18:15.474Z,55.42
2018-04-15T01:19:15.661Z,52.25
2018-04-15T01:20:15.848Z,56.15
2018-04-15T01:21:16.039Z,55.18
2018-04-15T01:22:16.220Z,49.32
2018-04-15T01:23:16.406Z,59.08
2018-04-15T01:24:16.593Z,60.30
2018-04-15T01:25:16.779Z,61.28
2018-04-15T01:26:16.966Z,50.05
2018-04-15T01:27:17.153Z,55.91
2018-04-15T01:28:17.339Z,54.44
2018-04-15T01:29:17.527Z,55.42
2018-04-15T01:30:17.714Z,62.01
2018-04-15T01:31:17.901Z,59.33
2018-04-15T01:32:18.088Z,53.47
2018-04-15T01:33:18.276Z,57.37
2018-04-15T01:34:18.463Z,55.42
2018-04-15T01:35:18.651Z,54.93
2018-04-15T01:36:18.842Z,51.03
2018-04-15T01:37:19.027Z,59.08
2018-04-15T01:38:19.213Z,50.29
2018-04-15T01:39:19.399Z,51.51
2018-04-15T01:40:19.587Z,54.44
2018-04-15T01:41:19.774Z,50.78
2018-04-15T01:42:19.963Z,52.73
2018-04-15T01:43:20.148Z,54.20
2018-04-15T01:44:20.337Z,51.51
2018-04-15T01:45:20.526Z,55.66
2018-04-15T01:46:20.714Z,54.44
2018-04-15T01:47:20.902Z,50.05
2018-04-15T01:48:21.090Z,51.51
2018-04-15T01:49:21.277Z,50.29
2018-04-15T01:50:21.464Z,51.27
2018-04-15T01:51:21.652Z,52.98
2018-04-15T01:52:21.838Z,50.54
2018-04-15T01:53:22.027Z,48.58
2018-04-15T01:54:22.213Z,49.07
2018-04-15T01:55:22.402Z,47.61
2018-04-15T01:56:22.589Z,51.03
2018-04-15T01:57:22.778Z,56.40
2018-04-15T01:58:22.963Z,49.56
2018-04-15T01:59:23.153Z,51.27
2018-04-15T02:00:23.337Z,52.25
2018-04-15T02:01:23.530Z,53.47
2018-04-15T02:02:23.712Z,54.44
2018-04-15T02:03:23.901Z,54.93
2018-04-15T02:04:24.092Z,52.49
2018-04-15T02:05:24.275Z,55.91
2018-04-15T02:06:24.463Z,52.25
2018-04-15T02:07:24.655Z,49.56
2018-04-15T02:08:24.838Z,51.03
2018-04-15T02:09:25.028Z,49.80
2018-04-15T02:10:25.214Z,49.80
2018-04-15T02:11:25.403Z,55.91
2018-04-15T02:12:25.591Z,53.47
2018-04-15T02:13:25.779Z,49.80
2018-04-15T02:14:25.966Z,50.05
2018-04-15T02:15:26.152Z,50.05
2018-04-15T02:16:26.342Z,50.29
2018-04-15T02:17:26.530Z,52.73
2018-04-15T02:18:26.717Z,51.27
2018-04-15T02:19:26.905Z,52.49
2018-04-15T02:20:27.090Z,50.29
2018-04-15T02:21:27.277Z,58.11
2018-04-15T02:22:27.465Z,64.70
2018-04-15T02:23:27.654Z,55.91
2018-04-15T02:24:27.838Z,48.10
2018-04-15T02:25:28.025Z,48.10
2018-04-15T02:26:28.214Z,47.61
2018-04-15T02:27:28.401Z,49.32
2018-04-15T02:28:28.592Z,47.36
2018-04-15T02:29:28.779Z,51.27
2018-04-15T02:30:28.967Z,52.49
2018-04-15T02:31:29.155Z,47.85
2018-04-15T02:32:29.343Z,45.65
2018-04-15T02:33:29.531Z,49.07
2018-04-15T02:34:29.784Z,48.34
2018-04-15T02:35:29.907Z,51.27
2018-04-15T02:36:30.096Z,49.07
2018-04-15T02:37:30.282Z,48.58
2018-04-15T02:38:30.470Z,43.70
2018-04-15T02:39:30.658Z,49.07
2018-04-15T02:40:30.845Z,52.25
2018-04-15T02:41:31.032Z,52.98
2018-04-15T02:42:31.220Z,50.29
2018-04-15T02:43:31.407Z,52.25
2018-04-15T02:44:31.592Z,49.56
2018-04-15T02:45:31.782Z,53.22
2018-04-15T02:46:31.969Z,50.78
2018-04-15T02:47:32.157Z,47.85
2018-04-15T02:48:32.344Z,46.14
2018-04-15T02:49:32.538Z,46.63
2018-04-15T02:50:32.721Z,47.36
2018-04-15T02:51:32.907Z,52.00
2018-04-15T02:52:33.094Z,54.44
2018-04-15T02:53:33.281Z,52.25
2018-04-15T02:54:33.468Z,49.80
2018-04-15T02:55:33.655Z,49.56
2018-04-15T02:56:33.845Z,48.83
2018-04-15T02:57:34.033Z,49.07
2018-04-15T02:58:34.221Z,51.51
2018-04-15T02:59:34.412Z,50.05
2018-04-15T03:00:34.604Z,50.05
2018-04-15T03:01:34.786Z,71.29
2018-04-15T03:02:34.972Z,47.36
2018-04-15T03:03:35.159Z,46.39
2018-04-15T03:04:35.349Z,45.65
2018-04-15T03:05:35.536Z,49.56
2018-04-15T03:06:35.723Z,57.13
2018-04-15T03:07:35.910Z,52.25
2018-04-15T03:08:36.098Z,50.29
2018-04-15T03:09:36.289Z,50.05
2018-04-15T03:10:36.471Z,52.00
2018-04-15T03:11:36.662Z,53.71
2018-04-15T03:12:36.847Z,52.25
2018-04-15T03:13:37.035Z,51.27
2018-04-15T03:14:37.224Z,52.73
2018-04-15T03:15:37.412Z,52.00
2018-04-15T03:16:37.601Z,52.73
2018-04-15T03:17:37.786Z,51.76
2018-04-15T03:18:37.973Z,50.05
2018-04-15T03:19:38.160Z,47.61
2018-04-15T03:20:38.348Z,51.51
2018-04-15T03:21:38.535Z,47.85
2018-04-15T03:22:38.723Z,54.44
2018-04-15T03:23:38.909Z,49.80
2018-04-15T03:24:39.097Z,60.06
2018-04-15T03:25:39.286Z,57.37
2018-04-15T03:26:39.469Z,55.91
2018-04-15T03:27:39.659Z,58.59
2018-04-15T03:28:39.844Z,54.93
2018-04-15T03:29:40.031Z,52.25
2018-04-15T03:30:40.221Z,52.73
2018-04-15T03:31:40.411Z,54.20
2018-04-15T03:32:40.591Z,51.51
2018-04-15T03:33:40.779Z,55.42
2018-04-15T03:34:40.966Z,52.49
2018-04-15T03:35:41.154Z,54.20
2018-04-15T03:36:41.342Z,54.69
2018-04-15T03:37:41.528Z,52.25
2018-04-15T03:38:41.718Z,55.66
2018-04-15T03:39:41.903Z,52.00
2018-04-15T03:40:42.091Z,52.98
2018-04-15T03:41:42.279Z,52.73
2018-04-15T03:42:42.465Z,49.80
2018-04-15T03:43:42.653Z,52.00
2018-04-15T03:44:42.841Z,52.49
2018-04-15T03:45:43.030Z,58.84
2018-04-15T03:46:43.218Z,59.33
2018-04-15T03:47:43.405Z,54.93
2018-04-15T03:48:43.593Z,56.40
2018-04-15T03:49:43.782Z,54.93
2018-04-15T03:50:43.962Z,53.96
2018-04-15T03:51:44.161Z,66.41
2018-04-15T03:52:44.338Z,53.22
2018-04-15T03:53:44.523Z,54.93
2018-04-15T03:54:44.708Z,61.04
2018-04-15T03:55:44.901Z,56.88
2018-04-15T03:56:45.083Z,51.51
2018-04-15T03:57:45.271Z,51.51
2018-04-15T03:58:45.456Z,52.73
2018-04-15T03:59:45.645Z,53.96
2018-04-15T04:00:45.834Z,54.69
2018-04-15T04:01:46.021Z,55.66
2018-04-15T04:02:46.207Z,54.93
2018-04-15T04:03:46.394Z,59.33
2018-04-15T04:04:46.580Z,54.20
2018-04-15T04:05:46.766Z,52.49
2018-04-15T04:06:46.953Z,52.98
2018-04-15T04:07:47.139Z,52.73
2018-04-15T04:08:47.326Z,49.07
2018-04-15T04:09:47.513Z,50.54
2018-04-15T04:10:47.700Z,58.35
2018-04-15T04:11:47.887Z,52.25
2018-04-15T04:12:48.076Z,54.69
2018-04-15T04:13:48.260Z,50.05
2018-04-15T04:14:48.446Z,52.49
2018-04-15T04:15:48.636Z,50.29
2018-04-15T04:16:48.825Z,50.78
2018-04-15T04:17:49.006Z,50.54
2018-04-15T04:18:49.193Z,52.25
2018-04-15T04:19:49.380Z,50.29
2018-04-15T04:20:49.568Z,50.05
2018-04-15T04:21:49.755Z,51.76
2018-04-15T04:22:49.943Z,52.00
2018-04-15T04:23:50.130Z,51.27
2018-04-15T04:24:50.316Z,51.76
2018-04-15T04:25:50.502Z,49.07
2018-04-15T04:26:50.690Z,53.22
2018-04-15T04:27:50.876Z,56.40
2018-04-15T04:28:51.063Z,55.91
2018-04-15T04:29:51.249Z,56.64
2018-04-15T04:30:51.436Z,53.47
2018-04-15T04:31:51.624Z,54.69
2018-04-15T04:32:51.811Z,53.71
2018-04-15T04:33:51.998Z,59.57
2018-04-15T04:34:52.186Z,62.01
2018-04-15T04:35:52.374Z,59.81
2018-04-15T04:36:52.560Z,59.81
2018-04-15T04:37:52.747Z,57.13
2018-04-15T04:38:52.935Z,55.18
2018-04-15T04:39:53.120Z,53.22
2018-04-15T04:40:53.308Z,58.84
2018-04-15T04:41:53.495Z,55.42
2018-04-15T04:42:53.684Z,59.33
2018-04-15T04:43:53.871Z,56.64
2018-04-15T04:44:54.057Z,54.69
2018-04-15T04:45:54.243Z,56.64
2018-04-15T04:46:54.429Z,58.59
2018-04-15T04:47:54.617Z,52.73
2018-04-15T04:48:54.802Z,57.13
2018-04-15T04:49:54.992Z,54.44
2018-04-15T04:50:55.177Z,52.00
2018-04-15T04:51:55.363Z,54.93
2018-04-15T04:52:55.550Z,53.47
2018-04-15T04:53:55.737Z,52.98
2018-04-15T04:54:55.926Z,51.51
2018-04-15T04:55:56.114Z,53.22
2018-04-15T04:56:56.301Z,51.76
2018-04-15T04:57:56.486Z,51.51
2018-04-15T04:58:56.677Z,51.51
2018-04-15T04:59:56.857Z,53.96
2018-04-15T05:00:57.043Z,57.13
2018-04-15T05:01:57.231Z,54.69
2018-04-15T05:02:57.423Z,57.62
2018-04-15T05:03:57.605Z,56.64
2018-04-15T05:04:57.793Z,57.37
2018-04-15T05:05:57.981Z,57.62
2018-04-15T05:06:58.171Z,57.86
2018-04-15T05:07:58.357Z,57.62
2018-04-15T05:08:58.545Z,53.96
2018-04-15T05:09:58.731Z,56.88
2018-04-15T05:10:58.917Z,52.25
2018-04-15T05:11:59.104Z,53.22
2018-04-15T05:12:59.294Z,59.33
2018-04-15T05:13:59.479Z,62.99
2018-04-15T05:14:59.663Z,55.91
2018-04-15T05:15:59.851Z,54.20
2018-04-15T05:17:00.039Z,55.42
2018-04-15T05:18:00.224Z,52.00
2018-04-15T05:19:00.413Z,55.91
2018-04-15T05:20:00.601Z,58.35
2018-04-15T05:21:00.785Z,56.15
2018-04-15T05:22:00.973Z,56.40
2018-04-15T05:23:01.161Z,57.86
2018-04-15T05:24:01.349Z,60.55
2018-04-15T05:25:01.537Z,57.13
2018-04-15T05:26:01.727Z,59.33
2018-04-15T05:27:01.954Z,59.57
2018-04-15T05:28:02.101Z,61.77
2018-04-15T05:29:02.287Z,56.64
2018-04-15T05:30:02.496Z,58.84
2018-04-15T05:31:02.660Z,57.86
2018-04-15T05:32:02.848Z,58.59
2018-04-15T05:33:03.034Z,56.88
2018-04-15T05:34:03.221Z,55.42
2018-04-15T05:35:03.440Z,56.40
2018-04-15T05:36:03.627Z,58.84
2018-04-15T05:37:03.818Z,58.59
2018-04-15T05:38:04.001Z,55.18
2018-04-15T05:39:04.188Z,55.18
2018-04-15T05:40:04.375Z,57.13
2018-04-15T05:41:04.562Z,54.93
2018-04-15T05:42:04.750Z,57.62
2018-04-15T05:43:04.936Z,56.64
2018-04-15T05:44:05.125Z,56.15
2018-04-15T05:45:05.315Z,54.93
2018-04-15T05:46:05.505Z,61.77
2018-04-15T05:47:05.690Z,62.99
2018-04-15T05:48:05.879Z,55.91
2018-04-15T05:49:06.068Z,56.88
2018-04-15T05:50:06.254Z,60.79
2018-04-15T05:51:06.439Z,59.08
2018-04-15T05:52:06.629Z,57.62
2018-04-15T05:53:06.816Z,61.52
2018-04-15T05:54:07.003Z,58.59
2018-04-15T05:55:07.191Z,58.35
2018-04-15T05:56:07.380Z,55.42
2018-04-15T05:57:07.568Z,57.13
2018-04-15T05:58:07.756Z,59.57
2018-04-15T05:59:07.943Z,55.66
2018-04-15T06:00:08.133Z,55.42
2018-04-15T06:01:08.323Z,58.11
2018-04-15T06:02:08.517Z,64.45
2018-04-15T06:03:08.700Z,55.66
2018-04-15T06:04:08.888Z,57.13
2018-04-15T06:05:09.079Z,58.84
2018-04-15T06:06:09.270Z,56.88
2018-04-15T06:07:09.456Z,53.71
2018-04-15T06:08:09.644Z,53.96
2018-04-15T06:09:09.832Z,56.40
2018-04-15T06:10:10.022Z,60.55
2018-04-15T06:11:10.209Z,58.84
2018-04-15T06:12:10.396Z,57.13
2018-04-15T06:13:10.586Z,56.40
2018-04-15T06:14:10.775Z,54.69
2018-04-15T06:15:10.963Z,53.47
2018-04-15T06:16:11.152Z,56.15
2018-04-15T06:17:11.342Z,55.42
2018-04-15T06:18:11.529Z,53.96
2018-04-15T06:19:11.720Z,57.62
2018-04-15T06:20:11.910Z,58.59
2018-04-15T06:21:12.100Z,62.26
2018-04-15T06:22:12.288Z,56.88
2018-04-15T06:23:12.474Z,56.40
2018-04-15T06:24:12.664Z,60.30
2018-04-15T06:25:12.853Z,65.92
2018-04-15T06:26:13.042Z,59.33
2018-04-15T06:27:13.231Z,59.33
2018-04-15T06:28:13.419Z,59.33
2018-04-15T06:29:13.609Z,56.88
2018-04-15T06:30:13.800Z,58.59
2018-04-15T06:31:13.989Z,59.57
2018-04-15T06:32:14.179Z,61.04
2018-04-15T06:33:14.369Z,62.50
2018-04-15T06:34:14.562Z,56.15
2018-04-15T06:35:14.746Z,59.33
2018-04-15T06:36:14.935Z,56.64
2018-04-15T06:37:15.124Z,55.91
2018-04-15T06:38:15.314Z,57.86
2018-04-15T06:39:15.501Z,58.11
2018-04-15T06:40:15.689Z,61.77
2018-04-15T06:41:15.877Z,57.86
2018-04-15T06:42:16.067Z,57.37
2018-04-15T06:43:16.257Z,57.13
2018-04-15T06:44:16.447Z,53.47
2018-04-15T06:45:16.700Z,53.47
2018-04-15T06:46:16.824Z,52.00
2018-04-15T06:47:17.015Z,55.42
2018-04-15T06:48:17.205Z,53.71
2018-04-15T06:49:17.409Z,55.42
2018-04-15T06:50:17.584Z,52.00
2018-04-15T06:51:17.774Z,47.85
2018-04-15T06:52:17.994Z,50.78
2018-04-15T06:53:18.158Z,49.32
2018-04-15T06:54:18.346Z,53.22
2018-04-15T06:55:18.536Z,53.22
2018-04-15T06:56:18.725Z,50.54
2018-04-15T06:57:18.922Z,50.54
2018-04-15T06:58:19.103Z,55.42
2018-04-15T06:59:19.295Z,56.40
2018-04-15T07:00:19.489Z,48.34
2018-04-15T07:01:19.674Z,52.00
2018-04-15T07:02:19.867Z,52.25
2018-04-15T07:03:20.055Z,54.44
2018-04-15T07:04:20.245Z,54.44
2018-04-15T07:05:20.437Z,55.18
2018-04-15T07:06:20.625Z,51.76
2018-04-15T07:07:20.817Z,53.96
2018-04-15T07:08:21.008Z,54.69
2018-04-15T07:09:21.196Z,54.69
2018-04-15T07:10:21.386Z,55.66
2018-04-15T07:11:21.575Z,58.59
2018-04-15T07:12:21.765Z,58.59
2018-04-15T07:13:21.958Z,55.91
2018-04-15T07:14:22.145Z,52.49
2018-04-15T07:15:22.334Z,52.98
2018-04-15T07:16:22.528Z,52.00
2018-04-15T07:17:22.718Z,55.18
2018-04-15T07:18:22.905Z,57.13
2018-04-15T07:19:23.097Z,56.15
2018-04-15T07:20:23.289Z,52.00
2018-04-15T07:21:23.475Z,54.44
2018-04-15T07:22:23.665Z,52.00
2018-04-15T07:23:23.858Z,52.00
2018-04-15T07:24:24.046Z,52.00
2018-04-15T07:25:24.237Z,55.66
2018-04-15T07:26:24.427Z,54.93
2018-04-15T07:27:24.616Z,54.69
2018-04-15T07:28:24.806Z,55.66
2018-04-15T07:29:24.994Z,54.20
2018-04-15T07:30:25.202Z,57.13
2018-04-15T07:31:25.373Z,57.13
2018-04-15T07:32:25.562Z,54.44
2018-04-15T07:33:25.754Z,55.42
2018-04-15T07:34:25.940Z,56.40
2018-04-15T07:35:26.130Z,56.64
2018-04-15T07:36:26.388Z,53.47
2018-04-15T07:37:26.509Z,53.22
2018-04-15T07:38:26.703Z,50.29
2018-04-15T07:39:26.889Z,51.51
2018-04-15T07:40:27.082Z,52.49
2018-04-15T07:41:27.273Z,65.19
2018-04-15T07:42:27.462Z,55.42
2018-04-15T07:43:27.649Z,52.73
2018-04-15T07:44:27.838Z,52.98
2018-04-15T07:45:28.026Z,52.98
2018-04-15T07:46:28.216Z,55.18
2018-04-15T07:47:28.407Z,52.49
2018-04-15T07:48:28.596Z,54.20
2018-04-15T07:49:28.786Z,52.98
2018-04-15T07:50:29.022Z,53.96
2018-04-15T07:51:29.165Z,55.66
2018-04-15T07:52:29.355Z,54.93
2018-04-15T07:53:29.546Z,55.18
2018-04-15T07:54:29.735Z,54.20
2018-04-15T07:55:29.927Z,58.84
2018-04-15T07:56:30.117Z,56.15
2018-04-15T07:57:30.306Z,55.91
2018-04-15T07:58:30.496Z,53.71
2018-04-15T07:59:30.688Z,56.64
2018-04-15T08:00:30.880Z,52.98
2018-04-15T08:01:31.076Z,66.16
2018-04-15T08:02:31.263Z,56.64
2018-04-15T08:03:31.454Z,52.98
2018-04-15T08:04:31.645Z,69.34
2018-04-15T08:05:31.837Z,49.80
2018-04-15T08:06:32.027Z,51.03
2018-04-15T08:07:32.220Z,54.93
2018-04-15T08:08:32.409Z,52.00
2018-04-15T08:09:32.603Z,58.11
2018-04-15T08:10:32.794Z,54.69
2018-04-15T08:11:32.983Z,47.61
2018-04-15T08:12:33.175Z,48.10
2018-04-15T08:13:33.366Z,52.98
2018-04-15T08:14:33.558Z,48.83
2018-04-15T08:15:33.750Z,53.96
2018-04-15T08:16:33.942Z,53.22
2018-04-15T08:17:34.133Z,50.78
2018-04-15T08:18:34.329Z,53.71
2018-04-15T08:19:34.516Z,50.54
2018-04-15T08:20:34.709Z,53.47
2018-04-15T08:21:34.901Z,54.93
2018-04-15T08:22:35.091Z,55.66
2018-04-15T08:23:35.283Z,54.93
2018-04-15T08:24:35.475Z,57.13
2018-04-15T08:25:35.666Z,53.71
2018-04-15T08:26:35.863Z,55.42
2018-04-15T08:27:36.051Z,53.71
2018-04-15T08:28:36.242Z,59.08
2018-04-15T08:29:36.434Z,58.84
2018-04-15T08:30:36.629Z,60.30
2018-04-15T08:31:36.821Z,69.82
2018-04-15T08:32:37.017Z,63.48
2018-04-15T08:33:37.209Z,59.57
2018-04-15T08:34:37.399Z,59.33
2018-04-15T08:35:37.592Z,53.71
2018-04-15T08:36:37.788Z,53.47
2018-04-15T08:37:37.973Z,54.93
2018-04-15T08:38:38.163Z,59.33
2018-04-15T08:39:38.361Z,61.77
2018-04-15T08:40:38.546Z,53.22
2018-04-15T08:41:38.742Z,54.20
2018-04-15T08:42:38.927Z,55.66
2018-04-15T08:43:39.119Z,60.06
2018-04-15T08:44:39.310Z,64.70
2018-04-15T08:45:39.503Z,62.50
2018-04-15T08:46:39.692Z,52.00
2018-04-15T08:47:39.884Z,60.06
2018-04-15T08:48:40.077Z,77.64
2018-04-15T08:49:40.270Z,73.24
2018-04-15T08:50:40.463Z,73.00
2018-04-15T08:51:40.657Z,73.97
2018-04-15T08:52:40.849Z,73.00
2018-04-15T08:53:41.042Z,74.71
2018-04-15T08:54:41.235Z,73.97
2018-04-15T08:55:41.428Z,74.22
2018-04-15T08:56:41.622Z,72.75
2018-04-15T08:57:41.819Z,73.49
2018-04-15T08:58:42.009Z,73.97
2018-04-15T08:59:42.201Z,56.88
2018-04-15T09:00:42.418Z,56.88
2018-04-15T09:01:42.585Z,56.88
2018-04-15T09:02:42.777Z,56.64
2018-04-15T09:03:42.971Z,81.79
2018-04-15T09:04:43.165Z,59.08
2018-04-15T09:05:43.359Z,61.28
2018-04-15T09:06:43.552Z,62.74
2018-04-15T09:07:43.745Z,77.39
2018-04-15T09:08:43.937Z,78.37
2018-04-15T09:09:44.157Z,80.57
2018-04-15T09:10:44.339Z,81.79
2018-04-15T09:11:44.535Z,80.32
2018-04-15T09:12:44.722Z,66.16
2018-04-15T09:13:44.914Z,67.38
2018-04-15T09:14:45.106Z,65.19
2018-04-15T09:15:45.297Z,79.35
2018-04-15T09:16:45.490Z,74.46
2018-04-15T09:17:45.683Z,69.09
2018-04-15T09:18:45.874Z,78.61
2018-04-15T09:19:46.068Z,75.20
2018-04-15T09:20:46.261Z,77.88
2018-04-15T09:21:46.456Z,76.17
2018-04-15T09:22:46.647Z,83.98
2018-04-15T09:23:46.843Z,74.95
2018-04-15T09:24:47.037Z,72.51
2018-04-15T09:25:47.228Z,73.24
2018-04-15T09:26:47.421Z,73.00
2018-04-15T09:27:47.615Z,79.59
2018-04-15T09:28:47.808Z,77.39
2018-04-15T09:29:48.003Z,78.61
2018-04-15T09:30:48.197Z,73.97
2018-04-15T09:31:48.393Z,62.99
2018-04-15T09:32:48.584Z,68.12
2018-04-15T09:33:48.776Z,60.79
2018-04-15T09:34:48.970Z,76.90
2018-04-15T09:35:49.169Z,75.20
2018-04-15T09:36:49.356Z,76.90
2018-04-15T09:37:49.551Z,79.35
2018-04-15T09:38:49.745Z,81.05
2018-04-15T09:39:49.940Z,77.39
2018-04-15T09:40:50.134Z,74.95
2018-04-15T09:41:50.329Z,68.36
2018-04-15T09:42:50.524Z,78.86
2018-04-15T09:43:50.759Z,74.46
2018-04-15T09:44:50.918Z,76.42
2018-04-15T09:45:51.107Z,63.72
2018-04-15T09:46:51.300Z,72.51
2018-04-15T09:47:51.495Z,80.08
2018-04-15T09:48:51.689Z,76.17
2018-04-15T09:49:51.883Z,71.53
2018-04-15T09:50:52.078Z,78.37
2018-04-15T09:51:52.272Z,86.43
2018-04-15T09:52:52.465Z,70.80
2018-04-15T09:53:52.658Z,61.52
2018-04-15T09:54:52.852Z,67.63
2018-04-15T09:55:53.047Z,69.82
2018-04-15T09:56:53.239Z,61.28
2018-04-15T09:57:53.432Z,76.66
2018-04-15T09:58:53.627Z,81.54
2018-04-15T09:59:53.824Z,61.04
2018-04-15T10:00:54.014Z,63.96
2018-04-15T10:01:54.209Z,58.35
2018-04-15T10:02:54.404Z,61.04
2018-04-15T10:03:54.597Z,58.84
2018-04-15T10:04:54.793Z,67.63
2018-04-15T10:05:54.987Z,73.00
2018-04-15T10:06:55.179Z,62.99
2018-04-15T10:07:55.376Z,74.22
2018-04-15T10:08:55.574Z,74.46
2018-04-15T10:09:55.764Z,77.64
2018-04-15T10:10:55.960Z,70.31
2018-04-15T10:11:56.150Z,65.19
2018-04-15T10:12:56.345Z,60.06
2018-04-15T10:13:56.537Z,68.36
2018-04-15T10:14:56.733Z,62.99
2018-04-15T10:15:56.926Z,69.58
2018-04-15T10:16:57.163Z,67.63
2018-04-15T10:17:57.355Z,56.40
2018-04-15T10:18:57.505Z,52.00
2018-04-15T10:19:57.700Z,72.27
2018-04-15T10:20:57.895Z,76.66
2018-04-15T10:21:58.088Z,73.49
2018-04-15T10:22:58.284Z,62.50
2018-04-15T10:23:58.534Z,53.22
2018-04-15T10:24:58.670Z,63.48
2018-04-15T10:25:58.863Z,59.33
2018-04-15T10:26:59.060Z,55.66
2018-04-15T10:27:59.251Z,54.93
2018-04-15T10:28:59.444Z,53.47
2018-04-15T10:29:59.637Z,52.73
2018-04-15T10:30:59.831Z,51.27
2018-04-15T10:32:00.029Z,69.34
2018-04-15T10:33:00.220Z,66.16
2018-04-15T10:34:00.414Z,67.14
2018-04-15T10:35:00.611Z,58.84
2018-04-15T10:36:00.809Z,51.51
2018-04-15T10:37:00.998Z,60.30
2018-04-15T10:38:01.195Z,66.41
2018-04-15T10:39:01.390Z,63.48
2018-04-15T10:40:01.583Z,62.01
2018-04-15T10:41:01.777Z,62.74
2018-04-15T10:42:01.972Z,64.70
2018-04-15T10:43:02.167Z,61.52
2018-04-15T10:44:02.363Z,49.32
2018-04-15T10:45:02.559Z,65.67
2018-04-15T10:46:02.766Z,53.22
2018-04-15T10:47:02.947Z,57.13
2018-04-15T10:48:03.145Z,54.69
2018-04-15T10:49:03.402Z,54.69
2018-04-15T10:50:03.473Z,53.71
2018-04-15T10:51:03.663Z,50.05
2018-04-15T10:52:03.862Z,54.20
2018-04-15T10:53:04.055Z,65.67
2018-04-15T10:54:04.252Z,60.79
2018-04-15T10:55:04.447Z,57.37
2018-04-15T10:56:04.641Z,51.51
2018-04-15T10:57:04.838Z,57.37
2018-04-15T10:58:05.033Z,55.66
2018-04-15T10:59:05.227Z,50.54
2018-04-15T11:00:05.426Z,55.91
2018-04-15T11:01:05.639Z,58.84
2018-04-15T11:02:05.815Z,60.06
2018-04-15T11:03:06.018Z,57.62
2018-04-15T11:04:06.207Z,59.33
2018-04-15T11:05:06.405Z,66.65
2018-04-15T11:06:06.598Z,58.35
2018-04-15T11:07:06.794Z,61.52
2018-04-15T11:08:06.989Z,54.69
2018-04-15T11:09:07.185Z,52.73
2018-04-15T11:10:07.381Z,46.88
2018-04-15T11:11:07.575Z,48.34
2018-04-15T11:12:07.772Z,63.48
2018-04-15T11:13:07.971Z,56.15
2018-04-15T11:14:08.179Z,49.56
2018-04-15T11:15:08.362Z,56.15
2018-04-15T11:16:08.556Z,63.23
2018-04-15T11:17:08.753Z,65.92
2018-04-15T11:18:08.950Z,61.52
2018-04-15T11:19:09.145Z,42.97
2018-04-15T11:20:09.342Z,42.97
2018-04-15T11:21:09.537Z,45.17
2018-04-15T11:22:09.734Z,46.88
2018-04-15T11:23:09.928Z,46.14
2018-04-15T11:24:10.124Z,45.90
2018-04-15T11:25:10.320Z,50.78
2018-04-15T11:26:10.515Z,47.12
2018-04-15T11:27:10.709Z,51.51
2018-04-15T11:28:10.907Z,52.73
2018-04-15T11:29:11.101Z,47.61
2018-04-15T11:30:11.297Z,54.69
2018-04-15T11:31:11.490Z,52.25
2018-04-15T11:32:11.688Z,47.85
2018-04-15T11:33:11.886Z,52.25
2018-04-15T11:34:12.076Z,55.42
2018-04-15T11:35:12.272Z,58.35
2018-04-15T11:36:12.468Z,62.01
2018-04-15T11:37:12.662Z,55.42
2018-04-15T11:38:12.858Z,45.90
2018-04-15T11:39:13.057Z,56.15
2018-04-15T11:40:13.244Z,50.54
2018-04-15T11:41:13.438Z,45.65
2018-04-15T11:42:13.639Z,55.18
2018-04-15T11:43:13.829Z,66.41
2018-04-15T11:44:14.022Z,52.25
2018-04-15T11:45:14.240Z,44.43
2018-04-15T11:46:14.413Z,46.63
2018-04-15T11:47:14.603Z,48.10
2018-04-15T11:48:14.797Z,49.56
2018-04-15T11:49:14.989Z,56.40
2018-04-15T11:50:15.183Z,50.29
2018-04-15T11:51:15.376Z,52.73
2018-04-15T11:52:15.570Z,55.18
2018-04-15T11:53:15.766Z,46.88
2018-04-15T11:54:15.958Z,52.25
2018-04-15T11:55:16.151Z,54.20
2018-04-15T11:56:16.347Z,59.33
2018-04-15T11:57:16.537Z,53.47
2018-04-15T11:58:16.729Z,45.90
2018-04-15T11:59:16.970Z,48.58
2018-04-15T12:00:17.118Z,50.78
2018-04-15T12:01:17.310Z,51.51
2018-04-15T12:02:17.534Z,50.29
2018-04-15T12:03:17.703Z,47.85
2018-04-15T12:04:17.894Z,53.96
2018-04-15T12:05:18.093Z,50.05
2018-04-15T12:06:18.287Z,52.49
2018-04-15T12:07:18.475Z,53.47
2018-04-15T12:08:18.669Z,45.17
2018-04-15T12:09:18.865Z,57.62
2018-04-15T12:10:19.058Z,48.58
2018-04-15T12:11:19.254Z,50.54
2018-04-15T12:12:19.444Z,51.76
2018-04-15T12:13:19.642Z,59.81
2018-04-15T12:14:19.832Z,53.47
2018-04-15T12:15:20.026Z,48.34
2018-04-15T12:16:20.219Z,46.88
2018-04-15T12:17:20.414Z,45.65
2018-04-15T12:18:20.606Z,58.84
2018-04-15T12:19:20.798Z,56.15
2018-04-15T12:20:20.992Z,64.70
2018-04-15T12:21:21.188Z,50.54
2018-04-15T12:22:21.381Z,55.66
2018-04-15T12:23:21.579Z,64.70
2018-04-15T12:24:21.767Z,63.96
2018-04-15T12:25:21.960Z,51.76
2018-04-15T12:26:22.155Z,54.93
2018-04-15T12:27:22.350Z,58.59
2018-04-15T12:28:22.546Z,64.70
2018-04-15T12:29:22.736Z,49.32
2018-04-15T12:30:22.929Z,54.69
2018-04-15T12:31:23.126Z,56.64
2018-04-15T12:32:23.320Z,52.49
2018-04-15T12:33:23.508Z,52.98
2018-04-15T12:34:23.700Z,56.40
2018-04-15T12:35:23.894Z,49.56
2018-04-15T12:36:24.088Z,59.33
2018-04-15T12:37:24.279Z,60.55
2018-04-15T12:38:24.475Z,61.28
2018-04-15T12:39:24.669Z,63.96
2018-04-15T12:40:24.864Z,63.72
2018-04-15T12:41:25.058Z,57.37
2018-04-15T12:42:25.254Z,51.27
2018-04-15T12:43:25.447Z,49.32
2018-04-15T12:44:25.641Z,47.12
2018-04-15T12:45:25.832Z,52.00
2018-04-15T12:46:26.025Z,54.44
2018-04-15T12:47:26.221Z,52.25
2018-04-15T12:48:26.414Z,59.33
2018-04-15T12:49:26.606Z,60.06
2018-04-15T12:50:26.800Z,52.98
2018-04-15T12:51:26.993Z,59.08
2018-04-15T12:52:27.187Z,70.31
2018-04-15T12:53:27.381Z,71.53
2018-04-15T12:54:27.572Z,59.57